地図

経路データ

SID SEASON NUMBER BASIN SUBBASIN NAME ISO_TIME NATURE LAT LON WMO_WIND WMO_PRES WMO_AGENCY TRACK_TYPE DIST2LAND LANDFALL IFLAG USA_AGENCY USA_ATCF_ID USA_LAT USA_LON USA_RECORD USA_STATUS USA_WIND USA_PRES USA_SSHS USA_R34_NE USA_R34_SE USA_R34_SW USA_R34_NW USA_R50_NE USA_R50_SE USA_R50_SW USA_R50_NW USA_R64_NE USA_R64_SE USA_R64_SW USA_R64_NW USA_POCI USA_ROCI USA_RMW USA_EYE TOKYO_LAT TOKYO_LON TOKYO_GRADE TOKYO_WIND TOKYO_PRES TOKYO_R50_DIR TOKYO_R50_LONG TOKYO_R50_SHORT TOKYO_R30_DIR TOKYO_R30_LONG TOKYO_R30_SHORT TOKYO_LAND CMA_LAT CMA_LON CMA_CAT CMA_WIND CMA_PRES HKO_LAT HKO_LON HKO_CAT HKO_WIND HKO_PRES NEWDELHI_LAT NEWDELHI_LON NEWDELHI_GRADE NEWDELHI_WIND NEWDELHI_PRES NEWDELHI_CI NEWDELHI_DP NEWDELHI_POCI REUNION_LAT REUNION_LON REUNION_TYPE REUNION_WIND REUNION_PRES REUNION_TNUM REUNION_CI REUNION_RMW REUNION_R34_NE REUNION_R34_SE REUNION_R34_SW REUNION_R34_NW REUNION_R50_NE REUNION_R50_SE REUNION_R50_SW REUNION_R50_NW REUNION_R64_NE REUNION_R64_SE REUNION_R64_SW REUNION_R64_NW BOM_LAT BOM_LON BOM_TYPE BOM_WIND BOM_PRES BOM_TNUM BOM_CI BOM_RMW BOM_R34_NE BOM_R34_SE BOM_R34_SW BOM_R34_NW BOM_R50_NE BOM_R50_SE BOM_R50_SW BOM_R50_NW BOM_R64_NE BOM_R64_SE BOM_R64_SW BOM_R64_NW BOM_ROCI BOM_POCI BOM_EYE BOM_POS_METHOD BOM_PRES_METHOD NADI_LAT NADI_LON NADI_CAT NADI_WIND NADI_PRES WELLINGTON_LAT WELLINGTON_LON WELLINGTON_WIND WELLINGTON_PRES DS824_LAT DS824_LON DS824_STAGE DS824_WIND DS824_PRES TD9636_LAT TD9636_LON TD9636_STAGE TD9636_WIND TD9636_PRES TD9635_LAT TD9635_LON TD9635_WIND TD9635_PRES TD9635_ROCI NEUMANN_LAT NEUMANN_LON NEUMANN_CLASS NEUMANN_WIND NEUMANN_PRES MLC_LAT MLC_LON MLC_CLASS MLC_WIND MLC_PRES USA_GUST BOM_GUST BOM_GUST_PER REUNION_GUST REUNION_GUST_PER USA_SEAHGT USA_SEARAD_NE USA_SEARAD_SE USA_SEARAD_SW USA_SEARAD_NW STORM_SPEED STORM_DIR
1921091S12147 1921 19 SP EA NOT_NAMED 1921-04-01 11:00:00 NR -12.0000 146.500 main 249 249 __________O___ -1 -12.0000 146.500 7 1 0
1921091S12147 1921 19 SP EA NOT_NAMED 1921-04-01 12:00:00 NR -12.0061 146.481 main 249 249 __________P___ -1 -12.0061 146.481 7 1 251
1921091S12147 1921 19 SP EA NOT_NAMED 1921-04-01 15:00:00 NR -12.0254 146.422 main 255 255 __________P___ -1 -12.0254 146.422 7 1 251
1921091S12147 1921 19 SP EA NOT_NAMED 1921-04-01 18:00:00 NR -12.0481 146.353 main 255 255 __________P___ -1 -12.0481 146.353 7 2 251
1921091S12147 1921 19 SP EA NOT_NAMED 1921-04-01 21:00:00 NR -12.0765 146.269 main 271 271 __________P___ -1 -12.0765 146.269 7 2 251
1921091S12147 1921 19 SP EA NOT_NAMED 1921-04-01 23:00:00 NR -12.1000 146.200 main 277 277 __________O___ -1 -12.1000 146.200 7 2 251
1921091S12147 1921 19 SP EA NOT_NAMED 1921-04-02 00:00:00 NR -12.1133 146.161 main 277 277 __________P___ -1 -12.1133 146.161 7 3 251
1921091S12147 1921 19 SP EA NOT_NAMED 1921-04-02 03:00:00 NR -12.1588 146.029 main 282 272 __________P___ -1 -12.1588 146.029 7 3 251
1921091S12147 1921 19 SP EA NOT_NAMED 1921-04-02 06:00:00 NR -12.2100 145.878 main 272 248 __________P___ -1 -12.2100 145.878 7 3 251
1921091S12147 1921 19 SP EA NOT_NAMED 1921-04-02 09:00:00 NR -12.2640 145.714 main 248 237 __________P___ -1 -12.2640 145.714 7 3 252
1921091S12147 1921 19 SP EA NOT_NAMED 1921-04-02 11:00:00 NR -12.3000 145.600 main 237 237 __________O___ -1 -12.3000 145.600 7 3 254
1921091S12147 1921 19 SP EA NOT_NAMED 1921-04-02 12:00:00 NR -12.3068 145.555 main 237 216 __________P___ -1 -12.3068 145.555 7 3 263
1921091S12147 1921 19 SP EA NOT_NAMED 1921-04-02 15:00:00 NR -12.3229 145.418 main 216 206 __________P___ -1 -12.3229 145.418 7 3 261
1921091S12147 1921 19 SP EA NOT_NAMED 1921-04-02 18:00:00 NR -12.3526 145.261 main 203 182 __________P___ -1 -12.3526 145.261 7 4 254
1921091S12147 1921 19 SP EA NOT_NAMED 1921-04-02 21:00:00 NR -12.4208 145.065 main 182 158 __________P___ -1 -12.4208 145.065 7 5 247
1921091S12147 1921 19 SP EA NOT_NAMED 1921-04-02 23:00:00 NR -12.5000 144.900 main 158 148 __________O___ -1 -12.5000 144.900 7 6 243
1921091S12147 1921 19 SP EA NOT_NAMED 1921-04-03 00:00:00 NR -12.5541 144.799 main 145 110 __________P___ -1 -12.5541 144.799 7 8 239
1921091S12147 1921 19 SP EA NOT_NAMED 1921-04-03 03:00:00 NR -12.7596 144.453 main 109 65 __________P___ -1 -12.7596 144.453 7 9 237
1921091S12147 1921 19 SP EA NOT_NAMED 1921-04-03 06:00:00 NR -13.0148 144.062 main 65 15 __________P___ -1 -13.0148 144.062 7 9 235
1921091S12147 1921 19 SP EA NOT_NAMED 1921-04-03 09:00:00 NR -13.3011 143.660 main 15 0 __________P___ -1 -13.3011 143.660 7 10 233
1921091S12147 1921 19 SP EA NOT_NAMED 1921-04-03 11:00:00 NR -13.5000 143.400 main 0 0 __________O___ -1 -13.5000 143.400 7 10 231
1921091S12147 1921 19 SP EA NOT_NAMED 1921-04-03 12:00:00 NR -13.6006 143.278 main 0 0 __________P___ -1 -13.6006 143.278 7 9 228
1921091S12147 1921 19 SP EA NOT_NAMED 1921-04-03 15:00:00 NR -13.9168 142.919 main 0 0 __________P___ -1 -13.9168 142.919 7 9 227
1921091S12147 1921 19 SP EA NOT_NAMED 1921-04-03 18:00:00 NR -14.2346 142.581 main 0 0 __________P___ -1 -14.2346 142.581 7 9 225
1921091S12147 1921 19 SP EA NOT_NAMED 1921-04-03 21:00:00 NR -14.5290 142.277 main 0 0 __________P___ -1 -14.5290 142.277 7 8 225
1921091S12147 1921 19 SP EA NOT_NAMED 1921-04-03 23:00:00 NR -14.7000 142.100 main 0 0 __________O___ -1 -14.7000 142.100 7 7 226
1921091S12147 1921 19 SP EA NOT_NAMED 1921-04-04 00:00:00 NR -14.7700 142.019 main 0 0 __________P___ -1 -14.7700 142.019 7 6 229
1921091S12147 1921 19 SP EA NOT_NAMED 1921-04-04 03:00:00 NR -14.9471 141.808 main 0 0 __________P___ -1 -14.9471 141.808 7 5 229
1921091S12147 1921 19 SP EA NOT_NAMED 1921-04-04 06:00:00 NR -15.0894 141.636 main 10 10 __________P___ -1 -15.0894 141.636 7 4 229
1921091S12147 1921 19 SP EA NOT_NAMED 1921-04-04 09:00:00 NR -15.2156 141.489 main 15 15 __________P___ -1 -15.2156 141.489 7 4 227
1921091S12147 1921 19 SP EA NOT_NAMED 1921-04-04 11:00:00 NR -15.3000 141.400 main 21 21 __________O___ -1 -15.3000 141.400 7 4 226
1921091S12147 1921 19 SP EA NOT_NAMED 1921-04-04 12:00:00 NR -15.3500 141.349 main 31 24 __________P___ -1 -15.3500 141.349 7 4 223
1921091S12147 1921 19 SP EA NOT_NAMED 1921-04-04 15:00:00 NR -15.5000 141.207 main 32 32 __________P___ -1 -15.5000 141.207 7 4 221
1921091S12147 1921 19 SP EA NOT_NAMED 1921-04-04 18:00:00 NR -15.6500 141.079 main 42 39 __________P___ -1 -15.6500 141.079 7 4 218
1921091S12147 1921 19 SP EA NOT_NAMED 1921-04-04 21:00:00 NR -15.8000 140.967 main 44 44 __________P___ -1 -15.8000 140.967 7 4 215
1921091S12147 1921 19 SP EA NOT_NAMED 1921-04-04 23:00:00 NR -15.9000 140.900 main 53 53 __________O___ -1 -15.9000 140.900 7 4 213
1921091S12147 1921 19 SP EA NOT_NAMED 1921-04-05 00:00:00 NR -15.9488 140.868 main 53 53 __________P___ -1 -15.9488 140.868 7 3 210
1921091S12147 1921 19 SP EA NOT_NAMED 1921-04-05 03:00:00 NR -16.0945 140.784 main 63 57 __________P___ -1 -16.0945 140.784 7 3 207
1921091S12147 1921 19 SP EA NOT_NAMED 1921-04-05 06:00:00 NR -16.2420 140.712 main 67 63 __________P___ -1 -16.2420 140.712 7 3 203
1921091S12147 1921 19 SP EA NOT_NAMED 1921-04-05 09:00:00 NR -16.3943 140.645 main 72 67 __________P___ -1 -16.3943 140.645 7 3 203
1921091S12147 1921 19 SP EA NOT_NAMED 1921-04-05 11:00:00 NR -16.5000 140.600 main 67 67 __________O___ -1 -16.5000 140.600 7 3 205
1921091S12147 1921 19 SP EA NOT_NAMED 1921-04-05 12:00:00 NR -16.5501 140.571 main 61 61 __________P___ -1 -16.5501 140.571 7 4 209
1921091S12147 1921 19 SP EA NOT_NAMED 1921-04-05 15:00:00 NR -16.7037 140.484 main 62 57 __________P___ -1 -16.7037 140.484 7 4 207
1921091S12147 1921 19 SP EA NOT_NAMED 1921-04-05 18:00:00 NR -16.8699 140.401 main 64 63 __________P___ -1 -16.8699 140.401 7 4 202
1921091S12147 1921 19 SP EA NOT_NAMED 1921-04-05 21:00:00 NR -17.0579 140.333 main 64 54 __________P___ -1 -17.0579 140.333 7 4 197
1921091S12147 1921 19 SP EA NOT_NAMED 1921-04-05 23:00:00 NR -17.2000 140.300 main 54 44 __________O___ -1 -17.2000 140.300 7 4 190
1921091S12147 1921 19 SP EA NOT_NAMED 1921-04-06 00:00:00 NR -17.2746 140.286 main 44 22 __________P___ -1 -17.2746 140.286 7 5 187
1921091S12147 1921 19 SP EA NOT_NAMED 1921-04-06 03:00:00 NR -17.5187 140.260 main 22 0 __________P___ -1 -17.5187 140.260 7 5 185
1921091S12147 1921 19 SP EA NOT_NAMED 1921-04-06 06:00:00 NR -17.7913 140.256 main 0 0 __________P___ -1 -17.7913 140.256 7 6 178
1921091S12147 1921 19 SP EA NOT_NAMED 1921-04-06 09:00:00 NR -18.0890 140.275 main 0 0 __________P___ -1 -18.0890 140.275 7 6 176
1921091S12147 1921 19 SP EA NOT_NAMED 1921-04-06 11:00:00 NR -18.3000 140.300 main 0 0 __________O___ -1 -18.3000 140.300 7 6 178
1921091S12147 1921 19 SP EA NOT_NAMED 1921-04-06 12:00:00 NR -18.4004 140.298 main 0 0 __________P___ -1 -18.4004 140.298 7 6 0
1921091S12147 1921 19 SP EA NOT_NAMED 1921-04-06 15:00:00 NR -18.7154 140.302 main 0 0 __________P___ -1 -18.7154 140.302 7 7 176
1921091S12147 1921 19 SP EA NOT_NAMED 1921-04-06 18:00:00 NR -19.0563 140.345 main 0 0 __________P___ -1 -19.0563 140.345 7 7 168
1921091S12147 1921 19 SP EA NOT_NAMED 1921-04-06 21:00:00 NR -19.4298 140.463 main 0 0 __________P___ -1 -19.4298 140.463 7 8 159
1921091S12147 1921 19 SP EA NOT_NAMED 1921-04-06 23:00:00 NR -19.7000 140.600 main 0 0 __________O___ -1 -19.7000 140.600 7 9 152
1921091S12147 1921 19 SP EA NOT_NAMED 1921-04-07 00:00:00 NR -19.8442 140.692 main 0 0 __________P___ -1 -19.8442 140.692 7 11 145
1921091S12147 1921 19 SP EA NOT_NAMED 1921-04-07 03:00:00 NR -20.3051 141.044 main 0 0 __________P___ -1 -20.3051 141.044 7 12 142
1921091S12147 1921 19 SP EA NOT_NAMED 1921-04-07 06:00:00 NR -20.7916 141.482 main 0 0 __________P___ -1 -20.7916 141.482 7 13 139
1921091S12147 1921 19 SP EA NOT_NAMED 1921-04-07 09:00:00 NR -21.2818 141.968 main 0 0 __________P___ -1 -21.2818 141.968 7 13 137
1921091S12147 1921 19 SP EA NOT_NAMED 1921-04-07 11:00:00 NR -21.6000 142.300 main 0 0 __________O___ -1 -21.6000 142.300 7 13 136
1921091S12147 1921 19 SP EA NOT_NAMED 1921-04-07 12:00:00 NR -21.7408 142.447 main 0 0 __________P___ -1 -21.7408 142.447 7 12 135
1921091S12147 1921 19 SP EA NOT_NAMED 1921-04-07 15:00:00 NR -22.1492 142.898 main 0 0 __________P___ -1 -22.1492 142.898 7 12 134
1921091S12147 1921 19 SP EA NOT_NAMED 1921-04-07 18:00:00 NR -22.5563 143.366 main 0 0 __________P___ -1 -22.5563 143.366 7 12 133
1921091S12147 1921 19 SP EA NOT_NAMED 1921-04-07 21:00:00 NR -22.9871 143.857 main 0 0 __________P___ -1 -22.9871 143.857 7 13 134
1921091S12147 1921 19 SP EA NOT_NAMED 1921-04-07 23:00:00 NR -23.3000 144.200 main 0 0 __________O___ -1 -23.3000 144.200 7 14 135
1921091S12147 1921 19 SP EA NOT_NAMED 1921-04-08 00:00:00 NR -23.4679 144.382 main 0 0 __________P___ -1 -23.4679 144.382 7 15 136
1921091S12147 1921 19 SP EA NOT_NAMED 1921-04-08 03:00:00 NR -24.0033 144.952 main 0 0 __________P___ -1 -24.0033 144.952 7 15 136
1921091S12147 1921 19 SP EA NOT_NAMED 1921-04-08 06:00:00 NR -24.5784 145.540 main 0 0 __________P___ -1 -24.5784 145.540 7 16 138
1921091S12147 1921 19 SP EA NOT_NAMED 1921-04-08 09:00:00 NR -25.1840 146.124 main 0 0 __________P___ -1 -25.1840 146.124 7 16 140
1921091S12147 1921 19 SP EA NOT_NAMED 1921-04-08 11:00:00 NR -25.6000 146.500 main 0 0 __________O___ -1 -25.6000 146.500 7 16 141
1921091S12147 1921 19 SP EA NOT_NAMED 1921-04-08 12:00:00 NR -25.7999 146.672 main 0 0 __________P___ -1 -25.7999 146.672 7 15 144
1921091S12147 1921 19 SP EA NOT_NAMED 1921-04-08 15:00:00 NR -26.4142 147.167 main 0 0 __________P___ -1 -26.4142 147.167 7 15 145
1921091S12147 1921 19 SP EA NOT_NAMED 1921-04-08 18:00:00 NR -27.0551 147.652 main 0 0 __________P___ -1 -27.0551 147.652 7 16 146
1921091S12147 1921 19 SP EA NOT_NAMED 1921-04-08 21:00:00 NR -27.7292 148.149 main 0 0 __________P___ -1 -27.7292 148.149 7 16 147
1921091S12147 1921 19 SP EA NOT_NAMED 1921-04-08 23:00:00 NR -28.2000 148.500 main 0 0 __________O___ -1 -28.2000 148.500 7 17 146
1921091S12147 1921 19 SP EA NOT_NAMED 1921-04-09 00:00:00 NR -28.4391 148.693 main 0 0 __________P___ -1 -28.4391 148.693 7 18 144
1921091S12147 1921 19 SP EA NOT_NAMED 1921-04-09 03:00:00 NR -29.1832 149.300 main 0 0 __________P___ -1 -29.1832 149.300 7 19 145
1921091S12147 1921 19 SP EA NOT_NAMED 1921-04-09 06:00:00 NR -29.9595 149.935 main 0 0 __________P___ -1 -29.9595 149.935 7 19 145
1921091S12147 1921 19 SP EA NOT_NAMED 1921-04-09 09:00:00 NR -30.7588 150.577 main 0 0 __________P___ -1 -30.7588 150.577 7 20 146
1921091S12147 1921 19 SP EA NOT_NAMED 1921-04-09 11:00:00 NR -31.3000 151.000 main 0 0 __________O___ -1 -31.3000 151.000 7 20 146
1921091S12147 1921 19 SP EA NOT_NAMED 1921-04-09 12:00:00 NR -31.5721 151.208 main 0 0 __________P___ -1 -31.5721 151.208 7 19 148
1921091S12147 1921 19 SP EA NOT_NAMED 1921-04-09 15:00:00 NR -32.3933 151.817 main 0 0 __________P___ -1 -32.3933 151.817 7 19 148
1921091S12147 1921 19 SP EA NOT_NAMED 1921-04-09 18:00:00 NR -33.2195 152.412 main 58 58 __________P___ -1 -33.2195 152.412 7 19 149
1921091S12147 1921 19 SP EA NOT_NAMED 1921-04-09 21:00:00 NR -34.0480 153.003 main 149 149 __________P___ -1 -34.0480 153.003 7 19 149
1921091S12147 1921 19 SP EA NOT_NAMED 1921-04-09 23:00:00 NR -34.6000 153.400 main 203 __________O___ -1 -34.6000 153.400 7 19 149

デジタル台風データ・検索

IBTrACS Databaseについて

本データベースは、米国NOAAが公開する1842年以降の世界の熱帯低気圧のベストトラックデータアーカイブInternational Best Track Archive for Climate Stewardship (IBTrACS)を、ウェブで閲覧しやすい形式に変換したものです。

最終更新日:2021-12-06